createdAt,value
2022-09-13T00:01:10.213Z,100297.81
2022-09-13T00:03:37.733Z,100301.72
2022-09-13T00:06:13.931Z,100302.25
2022-09-13T00:08:41.209Z,100309.78
2022-09-13T00:11:08.408Z,100309.03
2022-09-13T00:13:35.120Z,100306.56
2022-09-13T00:16:04.111Z,100304.56
2022-09-13T00:18:30.987Z,100304.97
2022-09-13T00:21:15.547Z,100307.19
2022-09-13T00:23:46.636Z,100291.34
2022-09-13T00:26:16.166Z,100299.97
2022-09-13T00:28:43.156Z,100306.84
2022-09-13T00:31:10.050Z,100307.00
2022-09-13T00:33:36.957Z,100310.50
2022-09-13T00:36:08.598Z,100307.00
2022-09-13T00:38:39.556Z,100303.03
2022-09-13T00:41:09.180Z,100301.00
2022-09-13T00:43:49.610Z,100295.31
2022-09-13T00:46:49.378Z,100303.53
2022-09-13T00:49:19.661Z,100301.66
2022-09-13T00:51:51.100Z,100300.56
2022-09-13T00:54:22.373Z,100297.81
2022-09-13T00:56:55.054Z,100283.78
2022-09-13T00:59:33.653Z,100295.47
2022-09-13T01:02:02.397Z,100298.53
2022-09-13T01:04:31.847Z,100302.66
2022-09-13T01:07:03.048Z,100296.09
2022-09-13T01:09:33.394Z,100301.41
2022-09-13T01:12:08.330Z,100298.88
2022-09-13T01:14:36.098Z,100287.94
2022-09-13T01:17:04.087Z,100295.22
2022-09-13T01:19:30.861Z,100290.44
2022-09-13T01:22:24.198Z,100289.34
2022-09-13T01:25:15.846Z,100289.75
2022-09-13T01:28:01.013Z,100299.56
2022-09-13T01:30:45.916Z,100279.78
2022-09-13T01:33:19.899Z,100280.09
2022-09-13T01:35:46.476Z,100284.56
2022-09-13T01:38:49.626Z,100277.94
2022-09-13T01:42:00.452Z,100277.19
2022-09-13T01:44:42.063Z,100279.50
2022-09-13T01:47:24.726Z,100270.56
2022-09-13T01:50:21.378Z,100268.13
2022-09-13T01:52:58.105Z,100270.13
2022-09-13T01:55:45.287Z,100265.03
2022-09-13T01:58:17.795Z,100260.22
2022-09-13T02:00:54.608Z,100265.13
2022-09-13T02:03:48.078Z,100258.50
2022-09-13T02:06:21.447Z,100253.66
2022-09-13T02:08:54.413Z,100261.09
2022-09-13T02:11:23.010Z,100259.91
2022-09-13T02:13:52.157Z,100258.34
2022-09-13T02:16:33.950Z,100253.31
2022-09-13T02:19:11.046Z,100256.12
2022-09-13T02:21:44.853Z,100256.88
2022-09-13T02:24:17.016Z,100247.81
2022-09-13T02:26:47.129Z,100244.22
2022-09-13T02:29:18.558Z,100232.88
2022-09-13T02:32:16.749Z,100232.28
2022-09-13T02:34:52.676Z,100231.38
2022-09-13T02:37:20.417Z,100226.31
2022-09-13T02:39:53.617Z,100228.34
2022-09-13T02:42:23.557Z,100223.03
2022-09-13T02:44:54.155Z,100227.56
2022-09-13T02:47:36.025Z,100236.66
2022-09-13T02:50:14.774Z,100229.41
2022-09-13T02:52:50.267Z,100231.53
2022-09-13T02:55:42.668Z,100230.87
2022-09-13T02:58:26.288Z,100217.53
2022-09-13T03:00:54.901Z,100218.59
2022-09-13T03:03:22.157Z,100214.06
2022-09-13T03:05:48.811Z,100215.12
2022-09-13T03:08:18.659Z,100214.88
2022-09-13T03:11:00.296Z,100212.12
2022-09-13T03:13:55.047Z,100210.59
2022-09-13T03:16:38.147Z,100213.09
2022-09-13T03:19:24.348Z,100211.50
2022-09-13T03:22:11.369Z,100210.44
2022-09-13T03:25:03.093Z,100203.22
2022-09-13T03:27:48.718Z,100201.53
2022-09-13T03:30:17.581Z,100207.50
2022-09-13T03:33:02.776Z,100200.06
2022-09-13T03:35:53.173Z,100202.00
2022-09-13T03:38:25.261Z,100206.69
2022-09-13T03:41:17.686Z,100194.69
2022-09-13T03:43:46.976Z,100193.22
2022-09-13T03:46:32.658Z,100191.41
2022-09-13T03:49:07.075Z,100194.88
2022-09-13T03:51:34.140Z,100194.53
2022-09-13T03:54:04.603Z,100191.78
2022-09-13T03:56:31.470Z,100200.06
2022-09-13T03:58:58.316Z,100200.81
2022-09-13T04:01:25.548Z,100194.34
2022-09-13T04:03:56.631Z,100195.12
2022-09-13T04:06:23.767Z,100196.47
2022-09-13T04:08:50.932Z,100190.13
2022-09-13T04:11:17.608Z,100195.25
2022-09-13T04:13:44.270Z,100191.91
2022-09-13T04:16:11.002Z,100186.59
2022-09-13T04:18:37.937Z,100190.25
2022-09-13T04:21:04.968Z,100193.03
2022-09-13T04:23:31.950Z,100193.78
2022-09-13T04:26:06.419Z,100194.75
2022-09-13T04:28:33.459Z,100203.97
2022-09-13T04:31:02.136Z,100204.84
2022-09-13T04:33:28.808Z,100209.69
2022-09-13T04:35:59.664Z,100212.78
2022-09-13T04:38:27.127Z,100206.13
2022-09-13T04:40:55.206Z,100204.62
2022-09-13T04:43:22.542Z,100204.72
2022-09-13T04:45:49.567Z,100212.66
2022-09-13T04:48:16.935Z,100206.37
2022-09-13T04:50:45.029Z,100220.03
2022-09-13T04:53:12.026Z,100221.44
2022-09-13T04:55:39.132Z,100223.78
2022-09-13T04:58:06.132Z,100216.87
2022-09-13T05:00:33.600Z,100230.37
2022-09-13T05:03:00.396Z,100229.34
2022-09-13T05:05:28.969Z,100223.97
2022-09-13T05:07:56.016Z,100226.59
2022-09-13T05:10:22.660Z,100220.81
2022-09-13T05:12:49.291Z,100219.66
2022-09-13T05:15:16.542Z,100218.91
2022-09-13T05:17:43.358Z,100236.97
2022-09-13T05:20:10.783Z,100231.97
2022-09-13T05:22:37.527Z,100228.78
2022-09-13T05:25:04.652Z,100237.50
2022-09-13T05:27:31.398Z,100241.44
2022-09-13T05:29:58.264Z,100241.81
2022-09-13T05:32:25.048Z,100240.84
2022-09-13T05:34:51.698Z,100242.69
2022-09-13T05:37:19.038Z,100246.03
2022-09-13T05:40:07.824Z,100245.91
2022-09-13T05:42:32.462Z,100253.00
2022-09-13T05:44:59.146Z,100244.41
2022-09-13T05:47:25.822Z,100255.41
2022-09-13T05:50:09.488Z,100244.25
2022-09-13T05:52:39.102Z,100245.91
2022-09-13T05:55:06.496Z,100244.72
2022-09-13T05:57:33.236Z,100237.91
2022-09-13T06:00:00.102Z,100243.38
2022-09-13T06:02:27.043Z,100240.16
2022-09-13T06:04:53.901Z,100235.56
2022-09-13T06:07:20.710Z,100239.28
2022-09-13T06:09:47.838Z,100236.28
2022-09-13T06:12:14.555Z,100238.16
2022-09-13T06:14:41.502Z,100225.62
2022-09-13T06:17:08.176Z,100233.13
2022-09-13T06:19:35.415Z,100233.97
2022-09-13T06:22:03.227Z,100236.56
2022-09-13T06:24:29.917Z,100233.59
2022-09-13T06:26:57.447Z,100225.31
2022-09-13T06:29:24.257Z,100219.91
2022-09-13T06:31:51.116Z,100226.75
2022-09-13T06:34:17.953Z,100229.03
2022-09-13T06:36:44.947Z,100220.84
2022-09-13T06:39:11.688Z,100225.66
2022-09-13T06:41:39.048Z,100221.13
2022-09-13T06:44:05.790Z,100220.31
2022-09-13T06:46:35.202Z,100213.31
2022-09-13T06:49:04.910Z,100213.63
2022-09-13T06:51:33.370Z,100201.34
2022-09-13T06:54:00.537Z,100211.97
2022-09-13T06:56:29.267Z,100206.31
2022-09-13T06:58:58.665Z,100211.88
2022-09-13T07:01:46.163Z,100209.72
2022-09-13T07:04:17.432Z,100210.81
2022-09-13T07:06:47.858Z,100206.09
2022-09-13T07:09:21.683Z,100212.75
2022-09-13T07:11:54.590Z,100203.53
2022-09-13T07:14:24.583Z,100206.75
2022-09-13T07:16:52.364Z,100204.69
2022-09-13T07:19:22.947Z,100198.50
2022-09-13T07:21:50.579Z,100194.94
2022-09-13T07:24:18.034Z,100189.91
2022-09-13T07:26:46.886Z,100182.72
2022-09-13T07:29:19.515Z,100193.88
2022-09-13T07:31:48.567Z,100197.41
2022-09-13T07:34:20.727Z,100191.88
2022-09-13T07:36:48.296Z,100196.78
2022-09-13T07:39:20.316Z,100195.28
2022-09-13T07:41:49.098Z,100187.41
2022-09-13T07:44:15.947Z,100179.63
2022-09-13T07:46:45.699Z,100190.16
2022-09-13T07:49:14.616Z,100180.50
2022-09-13T07:51:43.479Z,100184.09
2022-09-13T07:54:15.149Z,100190.03
2022-09-13T07:56:42.289Z,100196.31
2022-09-13T07:59:14.748Z,100202.13
2022-09-13T08:01:50.661Z,100206.94
2022-09-13T08:04:19.845Z,100210.94
2022-09-13T08:06:47.113Z,100211.41
2022-09-13T08:09:15.219Z,100207.38
2022-09-13T08:23:24.833Z,100196.37
2022-09-13T08:25:52.121Z,100196.37
2022-09-13T08:28:27.474Z,100196.69
2022-09-13T08:30:55.007Z,100200.09
2022-09-13T08:33:22.315Z,100194.69
2022-09-13T08:35:53.776Z,100188.31
2022-09-13T08:38:20.741Z,100189.63
2022-09-13T08:40:54.966Z,100193.28
2022-09-13T08:43:29.704Z,100189.63
2022-09-13T08:46:29.434Z,100189.78
2022-09-13T08:49:03.781Z,100189.81
2022-09-13T08:51:40.644Z,100185.87
2022-09-13T08:54:13.002Z,100181.50
2022-09-13T08:57:02.712Z,100180.63
2022-09-13T09:00:22.077Z,100178.41
2022-09-13T09:02:58.200Z,100183.72
2022-09-13T09:05:29.204Z,100178.00
2022-09-13T09:08:03.341Z,100169.47
2022-09-13T09:10:41.753Z,100165.66
2022-09-13T09:13:24.653Z,100166.25
2022-09-13T09:16:03.402Z,100165.59
2022-09-13T09:18:35.533Z,100167.81
2022-09-13T09:21:07.139Z,100153.53
2022-09-13T09:23:49.809Z,100146.06
2022-09-13T09:26:29.914Z,100147.31
2022-09-13T09:29:01.433Z,100138.03
2022-09-13T09:31:38.931Z,100129.47
2022-09-13T09:34:08.536Z,100130.31
2022-09-13T09:36:46.424Z,100127.22
2022-09-13T09:39:16.577Z,100125.75
2022-09-13T09:41:45.100Z,100126.34
2022-09-13T09:44:22.713Z,100124.50
2022-09-13T09:46:59.996Z,100122.13
2022-09-13T09:49:51.351Z,100135.97
2022-09-13T09:52:28.611Z,100129.16
2022-09-13T09:55:11.320Z,100129.44
2022-09-13T09:57:57.078Z,100122.81
2022-09-13T10:00:27.396Z,100119.63
2022-09-13T10:02:57.776Z,100123.59
2022-09-13T10:05:26.495Z,100119.78
2022-09-13T10:08:01.159Z,100113.94
2022-09-13T10:10:44.877Z,100107.25
2022-09-13T10:13:22.809Z,100102.06
2022-09-13T10:16:01.505Z,100101.63
2022-09-13T10:18:45.799Z,100106.94
2022-09-13T10:21:18.634Z,100105.37
2022-09-13T10:23:50.989Z,100103.06
2022-09-13T10:26:29.102Z,100095.34
2022-09-13T10:29:13.823Z,100092.16
2022-09-13T10:31:44.004Z,100089.03
2022-09-13T10:34:21.257Z,100088.41
2022-09-13T10:37:03.071Z,100089.44
2022-09-13T10:39:35.613Z,100088.25
2022-09-13T10:42:10.564Z,100087.41
2022-09-13T10:44:52.504Z,100089.16
2022-09-13T10:47:21.582Z,100086.09
2022-09-13T10:49:51.665Z,100083.44
2022-09-13T10:52:44.358Z,100073.50
2022-09-13T10:55:20.572Z,100083.75
2022-09-13T10:57:49.717Z,100090.72
2022-09-13T11:00:20.516Z,100081.34
2022-09-13T11:03:16.470Z,100079.41
2022-09-13T11:05:51.199Z,100090.31
2022-09-13T11:08:36.682Z,100082.13
2022-09-13T11:11:31.817Z,100068.19
2022-09-13T11:14:12.464Z,100063.50
2022-09-13T11:17:15.921Z,100067.41
2022-09-13T11:20:08.084Z,100064.59
2022-09-13T11:22:34.889Z,100066.75
2022-09-13T11:25:34.303Z,100066.34
2022-09-13T11:28:15.211Z,100065.34
2022-09-13T11:30:59.483Z,100062.75
2022-09-13T11:33:45.812Z,100050.94
2022-09-13T11:36:28.814Z,100050.34
2022-09-13T11:39:25.279Z,100047.00
2022-09-13T11:42:18.800Z,100043.16
2022-09-13T11:44:54.550Z,100037.09
2022-09-13T11:47:38.513Z,100028.66
2022-09-13T11:50:30.151Z,100027.72
2022-09-13T11:53:00.322Z,100026.28
2022-09-13T11:55:38.355Z,100026.87
2022-09-13T11:58:15.441Z,100012.88
2022-09-13T12:00:47.636Z,100020.47
2022-09-13T12:03:23.489Z,100010.19
2022-09-13T12:06:15.430Z,100001.44
2022-09-13T12:08:50.092Z,99999.25
2022-09-13T12:11:37.887Z,100000.59
2022-09-13T12:14:14.401Z,100001.06
2022-09-13T12:16:46.275Z,99999.97
2022-09-13T12:19:28.274Z,100000.59
2022-09-13T12:22:00.303Z,99988.09
2022-09-13T12:24:52.401Z,99984.72
2022-09-13T12:27:43.402Z,99996.06
2022-09-13T12:30:17.621Z,99994.84
2022-09-13T12:32:46.230Z,100002.13
2022-09-13T12:35:33.921Z,100006.44
2022-09-13T12:38:31.851Z,100006.66
2022-09-13T12:41:36.186Z,100004.34
2022-09-13T12:44:23.399Z,100005.53
2022-09-13T12:47:13.533Z,100006.31
2022-09-13T12:49:47.651Z,100003.25
2022-09-13T12:52:30.855Z,99998.09
2022-09-13T12:55:46.154Z,100001.25
2022-09-13T12:58:49.104Z,100005.06
2022-09-13T13:01:20.708Z,100003.19
2022-09-13T13:03:58.118Z,99998.50
2022-09-13T13:06:37.328Z,99990.69
2022-09-13T13:09:06.410Z,99991.53
2022-09-13T13:11:44.521Z,99997.09
2022-09-13T13:14:29.550Z,99992.44
2022-09-13T13:17:45.871Z,99995.94
2022-09-13T13:20:39.132Z,99995.31
2022-09-13T13:23:25.092Z,99984.44
2022-09-13T13:26:14.018Z,99981.81
2022-09-13T13:28:44.050Z,99983.66
2022-09-13T13:31:32.657Z,99981.06
2022-09-13T13:34:14.141Z,99979.66
2022-09-13T13:36:41.159Z,99979.72
2022-09-13T13:39:13.909Z,99969.87
2022-09-13T13:42:06.429Z,99975.19
2022-09-13T13:44:33.562Z,99982.19
2022-09-13T13:47:09.429Z,99981.16
2022-09-13T13:49:39.253Z,99981.06
2022-09-13T13:52:08.851Z,99979.66
2022-09-13T13:54:45.598Z,99979.16
2022-09-13T13:57:41.351Z,99972.31
2022-09-13T14:00:21.382Z,99966.31
2022-09-13T14:02:51.155Z,99971.25
2022-09-13T14:05:24.339Z,99964.88
2022-09-13T14:08:01.696Z,99962.87
2022-09-13T14:10:50.086Z,99962.87
2022-09-13T14:13:52.325Z,99967.69
2022-09-13T14:16:43.870Z,99961.81
2022-09-13T14:19:24.407Z,99951.81
2022-09-13T14:22:21.092Z,99956.47
2022-09-13T14:24:56.591Z,99952.88
2022-09-13T14:27:25.372Z,99955.87
2022-09-13T14:29:55.150Z,99958.66
2022-09-13T14:32:35.033Z,99951.53
2022-09-13T14:35:20.859Z,99951.22
2022-09-13T14:37:47.761Z,99955.97
2022-09-13T14:40:22.544Z,99954.53
2022-09-13T14:42:51.870Z,99949.63
2022-09-13T14:45:25.426Z,99945.66
2022-09-13T14:48:07.418Z,99944.72
2022-09-13T14:50:39.705Z,99943.91
2022-09-13T14:53:12.512Z,99942.69
2022-09-13T14:56:07.553Z,99933.03
2022-09-13T14:58:45.718Z,99937.56
2022-09-13T15:01:19.845Z,99926.06
2022-09-13T15:03:48.869Z,99926.66
2022-09-13T15:06:27.832Z,99917.72
2022-09-13T15:09:00.891Z,99914.94
2022-09-13T15:11:34.698Z,99919.81
2022-09-13T15:14:38.506Z,99915.13
2022-09-13T15:17:08.163Z,99912.50
2022-09-13T15:19:49.829Z,99910.88
2022-09-13T15:22:30.487Z,99906.69
2022-09-13T15:25:02.482Z,99902.97
2022-09-13T15:27:43.178Z,99902.66
2022-09-13T15:30:31.110Z,99899.97
2022-09-13T15:33:10.199Z,99912.66
2022-09-13T15:35:42.730Z,99908.09
2022-09-13T15:38:31.813Z,99902.19
2022-09-13T15:41:03.022Z,99903.38
2022-09-13T15:43:31.497Z,99905.16
2022-09-13T15:46:00.276Z,99909.31
2022-09-13T15:48:33.118Z,99918.84
2022-09-13T15:51:18.587Z,99922.09
2022-09-13T15:53:47.029Z,99910.94
2022-09-13T15:56:20.286Z,99904.88
2022-09-13T15:58:48.014Z,99904.69
2022-09-13T16:01:16.573Z,99903.06
2022-09-13T16:03:43.450Z,99906.38
2022-09-13T16:06:10.582Z,99911.63
2022-09-13T16:08:39.015Z,99900.97
2022-09-13T16:11:07.147Z,99906.47
2022-09-13T16:13:34.581Z,99901.31
2022-09-13T16:16:01.910Z,99904.44
2022-09-13T16:18:28.864Z,99900.56
2022-09-13T16:20:55.894Z,99902.66
2022-09-13T16:23:22.833Z,99899.56
2022-09-13T16:25:57.172Z,99894.00
2022-09-13T16:28:24.244Z,99892.56
2022-09-13T16:30:51.753Z,99895.03
2022-09-13T16:33:19.992Z,99891.63
2022-09-13T16:35:47.793Z,99897.47
2022-09-13T16:38:14.942Z,99894.94
2022-09-13T16:40:43.563Z,99910.69
2022-09-13T16:43:10.452Z,99909.47
2022-09-13T16:45:41.553Z,99910.09
2022-09-13T16:48:08.878Z,99897.72
2022-09-13T16:50:39.231Z,99904.19
2022-09-13T16:53:06.118Z,99902.34
2022-09-13T16:55:33.126Z,99896.59
2022-09-13T16:57:59.952Z,99896.47
2022-09-13T17:00:28.856Z,99902.81
2022-09-13T17:02:56.566Z,99895.28
2022-09-13T17:05:24.722Z,99892.06
2022-09-13T17:07:52.266Z,99902.56
2022-09-13T17:10:19.998Z,99900.00
2022-09-13T17:12:46.913Z,99905.50
2022-09-13T17:15:14.126Z,99903.72
2022-09-13T17:17:41.172Z,99898.81
2022-09-13T17:20:12.289Z,99903.28
2022-09-13T17:22:39.471Z,99897.13
2022-09-13T17:25:08.091Z,99901.44
2022-09-13T17:27:35.332Z,99893.38
2022-09-13T17:30:05.072Z,99890.91
2022-09-13T17:32:32.101Z,99883.84
2022-09-13T17:34:59.897Z,99895.97
2022-09-13T17:37:27.061Z,99897.88
2022-09-13T17:39:54.319Z,99893.22
2022-09-13T17:42:23.355Z,99893.47
2022-09-13T17:44:50.868Z,99892.59
2022-09-13T17:47:17.797Z,99900.13
2022-09-13T17:49:45.811Z,99900.00
2022-09-13T17:52:13.631Z,99899.25
2022-09-13T17:54:41.059Z,99906.75
2022-09-13T17:57:08.110Z,99906.75
2022-09-13T17:59:35.874Z,99908.47
2022-09-13T18:02:02.929Z,99905.91
2022-09-13T18:04:29.960Z,99897.31
2022-09-13T18:06:56.877Z,99895.72
2022-09-13T18:09:24.836Z,99899.81
2022-09-13T18:11:52.010Z,99899.06
2022-09-13T18:14:24.521Z,99901.84
2022-09-13T18:16:55.874Z,99907.84
2022-09-13T18:19:39.493Z,99907.09
2022-09-13T18:22:11.512Z,99906.44
2022-09-13T18:24:38.376Z,99908.38
2022-09-13T18:27:05.391Z,99911.19
2022-09-13T18:29:33.211Z,99905.47
2022-09-13T18:32:00.273Z,99908.13
2022-09-13T18:34:29.261Z,99910.22
2022-09-13T18:36:56.531Z,99908.25
2022-09-13T18:39:23.737Z,99904.16
2022-09-13T18:41:50.874Z,99902.87
2022-09-13T18:44:18.980Z,99903.13
2022-09-13T18:46:47.230Z,99899.00
2022-09-13T18:49:15.663Z,99898.78
2022-09-13T18:51:44.485Z,99891.91
2022-09-13T18:54:14.967Z,99897.91
2022-09-13T18:56:42.416Z,99895.72
2022-09-13T18:59:10.422Z,99904.19
2022-09-13T19:01:41.736Z,99905.16
2022-09-13T19:04:12.936Z,99901.06
2022-09-13T19:06:46.458Z,99910.53
2022-09-13T19:09:16.016Z,99915.97
2022-09-13T19:11:48.393Z,99921.19
2022-09-13T19:14:18.425Z,99910.81
2022-09-13T19:16:45.742Z,99906.53
2022-09-13T19:19:16.674Z,99904.06
2022-09-13T19:21:44.396Z,99900.53
2022-09-13T19:24:18.489Z,99896.78
2022-09-13T19:26:47.814Z,99901.84
2022-09-13T19:29:17.388Z,99902.59
2022-09-13T19:31:48.191Z,99897.38
2022-09-13T19:34:16.129Z,99898.28
2022-09-13T19:36:44.634Z,99895.69
2022-09-13T19:39:12.042Z,99895.63
2022-09-13T19:41:40.591Z,99897.81
2022-09-13T19:44:08.686Z,99894.25
2022-09-13T19:46:39.044Z,99893.00
2022-09-13T19:49:08.676Z,99894.72
2022-09-13T19:51:37.053Z,99892.69
2022-09-13T19:54:05.222Z,99889.06
2022-09-13T19:56:34.909Z,99895.31
2022-09-13T19:59:01.929Z,99890.62
2022-09-13T20:01:34.206Z,99896.81
2022-09-13T20:04:03.577Z,99893.75
2022-09-13T20:06:38.582Z,99893.72
2022-09-13T20:09:06.330Z,99897.19
2022-09-13T20:11:36.633Z,99894.22
2022-09-13T20:14:06.750Z,99892.06
2022-09-13T20:16:35.075Z,99881.94
2022-09-13T20:19:10.510Z,99885.09
2022-09-13T20:21:46.042Z,99879.47
2022-09-13T20:24:12.796Z,99872.81
2022-09-13T20:26:39.566Z,99872.34
2022-09-13T20:29:07.663Z,99873.91
2022-09-13T20:31:36.781Z,99867.25
2022-09-13T20:34:07.144Z,99867.59
2022-09-13T20:36:35.866Z,99867.59
2022-09-13T20:39:03.892Z,99860.16
2022-09-13T20:41:31.732Z,99859.88
2022-09-13T20:44:02.159Z,99858.44
2022-09-13T20:46:31.431Z,99865.38
2022-09-13T20:48:58.757Z,99856.37
2022-09-13T20:51:29.585Z,99861.47
2022-09-13T20:54:00.871Z,99854.41
2022-09-13T20:56:29.033Z,99856.59
2022-09-13T20:58:58.444Z,99861.66
2022-09-13T21:01:27.199Z,99859.72
2022-09-13T21:03:55.309Z,99856.97
2022-09-13T21:06:25.391Z,99865.25
2022-09-13T21:08:53.490Z,99867.47
2022-09-13T21:11:33.681Z,99866.25
2022-09-13T21:14:09.063Z,99862.41
2022-09-13T21:16:41.425Z,99863.34
2022-09-13T21:19:09.227Z,99862.88
2022-09-13T21:21:38.525Z,99866.13
2022-09-13T21:24:09.961Z,99861.84
2022-09-13T21:26:37.876Z,99860.50
2022-09-13T21:29:04.672Z,99862.00
2022-09-13T21:31:33.764Z,99863.94
2022-09-13T21:36:35.944Z,99870.31
2022-09-13T21:39:04.259Z,99858.06
2022-09-13T21:41:32.003Z,99863.13
2022-09-13T21:43:58.772Z,99868.66
2022-09-13T21:46:28.369Z,99860.28
2022-09-13T21:48:56.271Z,99858.00
2022-09-13T21:51:33.708Z,99857.81
2022-09-13T21:54:02.430Z,99854.13
2022-09-13T21:56:31.995Z,99851.50
2022-09-13T21:58:59.925Z,99842.31
2022-09-13T22:01:30.218Z,99851.84
2022-09-13T22:06:25.291Z,99849.44
2022-09-13T22:08:56.918Z,99854.72
2022-09-13T22:11:26.779Z,99846.16
2022-09-13T22:13:54.389Z,99842.50
2022-09-13T22:16:29.576Z,99836.97
2022-09-13T22:18:59.245Z,99843.88
2022-09-13T22:21:27.948Z,99842.81
2022-09-13T22:23:55.233Z,99830.25
2022-09-13T22:26:25.468Z,99829.03
2022-09-13T22:28:54.720Z,99824.13
2022-09-13T22:31:32.729Z,99827.75
2022-09-13T22:34:01.432Z,99818.97
2022-09-13T22:36:29.209Z,99818.16
2022-09-13T22:38:56.241Z,99815.09
2022-09-13T22:41:25.999Z,99818.59
2022-09-13T22:43:53.409Z,99819.63
2022-09-13T22:46:23.202Z,99818.69
2022-09-13T22:48:50.645Z,99805.53
2022-09-13T22:51:19.141Z,99819.81
2022-09-13T22:53:48.200Z,99809.75
2022-09-13T22:56:24.511Z,99809.63
2022-09-13T22:58:56.441Z,99804.41
2022-09-13T23:01:24.236Z,99804.59
2022-09-13T23:03:51.337Z,99800.69
2022-09-13T23:06:21.177Z,99805.03
2022-09-13T23:08:48.524Z,99794.66
2022-09-13T23:11:22.443Z,99800.38
2022-09-13T23:13:51.388Z,99800.84
2022-09-13T23:16:26.926Z,99799.72
2022-09-13T23:18:54.940Z,99791.28
2022-09-13T23:21:23.173Z,99790.47
2022-09-13T23:23:50.425Z,99788.44
2022-09-13T23:26:20.038Z,99785.19
2022-09-13T23:28:47.715Z,99783.03
2022-09-13T23:31:15.619Z,99779.78
2022-09-13T23:33:45.011Z,99784.81
2022-09-13T23:36:13.607Z,99783.91
2022-09-13T23:38:41.633Z,99785.44
2022-09-13T23:41:10.146Z,99779.69
2022-09-13T23:43:37.012Z,99783.66
2022-09-13T23:46:03.787Z,99779.09
2022-09-13T23:48:30.867Z,99776.78
2022-09-13T23:51:02.139Z,99779.16
2022-09-13T23:53:29.707Z,99781.19
2022-09-13T23:55:56.909Z,99775.84
2022-09-13T23:58:23.753Z,99774.50
